»·PEaware :: SWA3037 KSFO-KLAX

SWA3037 :: KSFO-KLAX

FLIGHT INFORMATION

Flight Status: Arrived
Operator:
Southwest Airlines
More flights by this operator :: More flights under this callsign
Pilot: Alfredo R. (12181)
Aircraft: BOEING 737-700
(B737)
More flights by this aircraft type
Origin: KSFO San Francisco Intl
United States
Destination: KLAX Los Angeles Intl
United States
More flights between these airports :: More routes between these airports
Route: SSTIK4 EBAYE BURGL IRNMN2
File this flight plan on PilotEdge
Remarks:
Altitude:
(Current/Filed)
350ft
Speed:
(Current/Filed)
225kts
Departed: 19-Jan-20 05:32 PM
Arrived: 19-Jan-20 06:35 PM
Distance/Time
Traveled:
293nm/1:02
Distance/Time
To Go:
Arrived

Flight Plot

Page will automatically refresh every two minutes.

Flight plan parsing failed; only flown route is shown


Map Options




Map Legend


Flown Route
Filed Route
Departure Airport
Arrival Airport
Navaid (VOR, NDB)
Fix

Horizontal Profiles

Position Reports

Time Latitude Longitude Heading Altitude Ground
Speed
19-Jan-20 16:43 37.612832 -122.383170 296 31ft 0kts
19-Jan-20 16:43 37.612832 -122.383170 296 31ft 0kts
19-Jan-20 16:45 37.612832 -122.383170 296 31ft 0kts
19-Jan-20 16:45 37.612832 -122.383170 296 31ft 0kts
19-Jan-20 16:46 37.612832 -122.383170 296 30ft 0kts
19-Jan-20 16:48 37.612832 -122.383170 296 30ft 0kts
19-Jan-20 16:48 37.612832 -122.383170 296 30ft 0kts
19-Jan-20 16:49 37.612832 -122.383170 296 30ft 0kts
19-Jan-20 16:50 37.612832 -122.383170 296 30ft 0kts
19-Jan-20 16:51 37.612832 -122.383170 296 30ft 0kts
19-Jan-20 16:52 37.612832 -122.383170 296 30ft 0kts
19-Jan-20 16:53 37.612832 -122.383170 296 30ft 0kts
19-Jan-20 16:54 37.612832 -122.383170 296 30ft 0kts
19-Jan-20 16:55 37.612832 -122.383170 296 30ft 0kts
19-Jan-20 16:56 37.612832 -122.383170 296 30ft 0kts
19-Jan-20 16:57 37.612832 -122.383170 296 30ft 0kts
19-Jan-20 16:58 37.612832 -122.383170 296 30ft 0kts
19-Jan-20 16:59 37.612832 -122.383170 296 30ft 0kts
19-Jan-20 17:00 37.612832 -122.383170 296 30ft 0kts
19-Jan-20 17:01 37.612832 -122.383170 296 30ft 0kts
19-Jan-20 17:02 37.612832 -122.383170 296 30ft 0kts
19-Jan-20 17:03 37.612832 -122.383170 296 30ft 0kts
19-Jan-20 17:04 37.612832 -122.383170 296 30ft 0kts
19-Jan-20 17:05 37.612832 -122.383170 296 30ft 0kts
19-Jan-20 17:06 37.612832 -122.383170 296 30ft 0kts
19-Jan-20 17:07 37.612832 -122.383170 296 30ft 0kts
19-Jan-20 17:08 37.612832 -122.383170 296 30ft 0kts
19-Jan-20 17:09 37.612832 -122.383170 296 30ft 0kts
19-Jan-20 17:10 37.612832 -122.383170 296 30ft 0kts
19-Jan-20 17:11 37.612832 -122.383170 296 30ft 0kts
19-Jan-20 17:12 37.612832 -122.383170 296 30ft 0kts
19-Jan-20 17:13 37.612832 -122.383170 296 30ft 0kts
19-Jan-20 17:14 37.612832 -122.383170 296 30ft 0kts
19-Jan-20 17:15 37.612832 -122.383170 296 30ft 0kts
19-Jan-20 17:16 37.612832 -122.383170 296 31ft 0kts
19-Jan-20 17:17 37.612623 -122.382613 274 30ft 2kts
19-Jan-20 17:18 37.612976 -122.382055 209 30ft 2kts
19-Jan-20 17:19 37.612132 -122.382611 207 30ft 7kts
19-Jan-20 17:20 37.610935 -122.382875 115 30ft 3kts
19-Jan-20 17:21 37.610899 -122.382781 116 30ft 0kts
19-Jan-20 17:22 37.610899 -122.382781 116 30ft 0kts
19-Jan-20 17:23 37.610899 -122.382781 116 30ft 0kts
19-Jan-20 17:24 37.610858 -122.382688 120 30ft 0kts
19-Jan-20 17:25 37.610843 -122.382678 148 30ft 0kts
19-Jan-20 17:26 37.610122 -122.383024 208 30ft 6kts
19-Jan-20 17:27 37.608531 -122.383797 143 30ft 0kts
19-Jan-20 17:28 37.608531 -122.383797 143 30ft 0kts
19-Jan-20 17:29 37.608238 -122.383297 111 30ft 6kts
19-Jan-20 17:30 37.609271 -122.382014 27 29ft 0kts
19-Jan-20 17:31 37.631901 -122.367322 27 821ft 150kts
19-Jan-20 17:32 37.675276 -122.351747 358 3289ft 172kts
19-Jan-20 17:33 37.711553 -122.398344 271 5661ft 214kts
19-Jan-20 17:34 37.673116 -122.448482 182 8874ft 197kts
19-Jan-20 17:35 37.616003 -122.456260 184 10235ft 274kts
19-Jan-20 17:36 37.538919 -122.460877 175 11690ft 304kts
19-Jan-20 17:37 37.459386 -122.424564 149 14865ft 324kts
19-Jan-20 17:38 37.394310 -122.344580 137 18009ft 339kts
19-Jan-20 17:39 37.328622 -122.255316 137 19139ft 344kts
19-Jan-20 17:40 37.263161 -122.166727 139 21195ft 364kts
19-Jan-20 17:41 37.195141 -122.074887 140 23221ft 385kts
19-Jan-20 17:42 37.122764 -121.977393 140 25079ft 398kts
19-Jan-20 17:43 37.045939 -121.874281 139 26876ft 409kts
19-Jan-20 17:44 36.967619 -121.769467 139 28482ft 420kts
19-Jan-20 17:45 36.886197 -121.660856 139 30054ft 428kts
19-Jan-20 17:46 36.803914 -121.551452 139 31610ft 434kts
19-Jan-20 17:47 36.720122 -121.440517 139 33219ft 435kts
19-Jan-20 17:48 36.636393 -121.329894 140 34798ft 432kts
19-Jan-20 17:49 36.552318 -121.219358 140 35084ft 449kts
19-Jan-20 17:50 36.466215 -121.106433 140 35083ft 446kts
19-Jan-20 17:51 36.381689 -120.990418 137 35082ft 451kts
19-Jan-20 17:52 36.300058 -120.872905 138 35116ft 448kts
19-Jan-20 17:53 36.218696 -120.756465 137 35118ft 449kts
19-Jan-20 17:54 36.136427 -120.639015 138 35115ft 447kts
19-Jan-20 17:55 36.053465 -120.521137 138 35115ft 446kts
19-Jan-20 17:56 35.969783 -120.402575 138 35118ft 446kts
19-Jan-20 17:57 35.886594 -120.285832 142 35114ft 444kts
19-Jan-20 17:58 35.788422 -120.199750 156 35125ft 439kts
19-Jan-20 17:59 35.683877 -120.121061 156 35119ft 438kts
19-Jan-20 18:00 35.579825 -120.042651 155 35125ft 440kts
19-Jan-20 18:01 35.475803 -119.964302 156 34875ft 442kts
19-Jan-20 18:02 35.373796 -119.887616 155 33031ft 417kts
19-Jan-20 18:03 35.275109 -119.811539 150 31226ft 423kts
19-Jan-20 18:04 35.180635 -119.723026 148 29448ft 433kts
19-Jan-20 18:05 35.086062 -119.634696 148 27624ft 424kts
19-Jan-20 18:06 34.994863 -119.549907 148 25784ft 404kts
19-Jan-20 18:07 34.906541 -119.468165 149 23954ft 389kts
19-Jan-20 18:08 34.820585 -119.391493 149 22190ft 377kts
19-Jan-20 18:09 34.737978 -119.317579 148 20399ft 359kts
19-Jan-20 18:10 34.655430 -119.245797 148 18811ft 354kts
19-Jan-20 18:11 34.578365 -119.179290 148 17354ft 348kts
19-Jan-20 18:12 34.502966 -119.112867 147 15954ft 340kts
19-Jan-20 18:13 34.432337 -119.050464 147 14838ft 337kts
19-Jan-20 18:14 34.366477 -118.993521 147 13965ft 333kts
19-Jan-20 18:15 34.304287 -118.938210 145 13118ft 327kts
19-Jan-20 18:16 34.243440 -118.882813 145 12264ft 321kts
19-Jan-20 18:17 34.173508 -118.818488 144 11187ft 284kts
19-Jan-20 18:18 34.111213 -118.752202 139 10108ft 278kts
19-Jan-20 18:19 34.058847 -118.695274 138 9170ft 271kts
19-Jan-20 18:20 34.024848 -118.612735 100 8136ft 274kts
19-Jan-20 18:21 34.017307 -118.532490 98 7283ft 262kts
19-Jan-20 18:22 34.011355 -118.458095 89 6430ft 232kts
19-Jan-20 18:23 34.021856 -118.389317 80 6004ft 220kts
19-Jan-20 18:24 34.030667 -118.328017 83 5406ft 218kts
19-Jan-20 18:25 34.038876 -118.267552 82 4624ft 214kts
19-Jan-20 18:26 34.046641 -118.204631 82 3727ft 211kts
19-Jan-20 18:27 34.044760 -118.146747 133 3024ft 195kts
19-Jan-20 18:28 33.995315 -118.124561 162 3004ft 197kts
19-Jan-20 18:29 33.964875 -118.161578 294 3025ft 205kts
19-Jan-20 18:30 33.968318 -118.223962 264 2542ft 184kts
19-Jan-20 18:31 33.962174 -118.284674 264 2108ft 175kts
19-Jan-20 18:32 33.956232 -118.342912 264 1114ft 145kts
19-Jan-20 18:33 33.950445 -118.399373 263 250ft 156kts
19-Jan-20 18:34 33.946246 -118.434542 169 105ft 20kts
19-Jan-20 18:35 33.946580 -118.424846 83 113ft 39kts
19-Jan-20 18:36 33.947662 -118.414466 79 121ft 29kts
19-Jan-20 18:37 33.948705 -118.405442 83 119ft 34kts
19-Jan-20 18:38 33.947534 -118.402253 115 117ft 2kts
19-Jan-20 18:39 33.947398 -118.401855 112 116ft 0kts
19-Jan-20 18:40 33.947398 -118.401855 112 116ft 0kts

Navigation Log

Ident Type
Flight plan parsing failed, navigation log unavailable